createdAt,value
2019-03-16T00:00:45.535Z,5.91
2019-03-16T00:06:40.554Z,5.16
2019-03-16T00:12:35.544Z,6.79
2019-03-16T00:18:30.529Z,5.63
2019-03-16T00:24:25.548Z,6.19
2019-03-16T00:30:20.559Z,5.85
2019-03-16T00:36:15.561Z,5.14
2019-03-16T00:42:10.582Z,6.21
2019-03-16T00:48:05.576Z,6.05
2019-03-16T00:54:00.589Z,5.38
2019-03-16T00:59:55.687Z,5.9
2019-03-16T01:05:50.593Z,6.44
2019-03-16T01:11:45.587Z,5.91
2019-03-16T01:17:40.597Z,5.73
2019-03-16T01:23:35.574Z,6.01
2019-03-16T01:29:30.649Z,6.14
2019-03-16T01:35:25.610Z,6.16
2019-03-16T01:41:20.618Z,4.77
2019-03-16T01:47:15.638Z,5.95
2019-03-16T01:53:10.630Z,5.17
2019-03-16T01:59:05.625Z,5.48
2019-03-16T02:05:00.666Z,5.05
2019-03-16T02:10:55.692Z,6.26
2019-03-16T02:16:50.645Z,6.27
2019-03-16T02:22:45.648Z,5.62
2019-03-16T02:28:40.651Z,5.76
2019-03-16T02:34:35.681Z,5.46
2019-03-16T02:40:30.695Z,6
2019-03-16T02:46:25.680Z,5.3
2019-03-16T02:52:20.740Z,5.03
2019-03-16T02:58:15.695Z,5.22
2019-03-16T03:04:10.685Z,5.68
2019-03-16T03:10:05.689Z,5.59
2019-03-16T03:16:00.701Z,5.35
2019-03-16T03:21:55.725Z,5.88
2019-03-16T03:27:50.699Z,5.81
2019-03-16T03:33:59.576Z,5.67
2019-03-16T03:39:40.707Z,5.96
2019-03-16T03:45:35.771Z,5.98
2019-03-16T03:51:30.775Z,7.23
2019-03-16T03:57:25.776Z,7.97
2019-03-16T04:03:20.734Z,8.73
2019-03-16T04:09:15.745Z,8.93
2019-03-16T04:15:10.748Z,7.98
2019-03-16T04:21:05.761Z,8.4
2019-03-16T04:27:14.859Z,8.04
2019-03-16T04:32:55.769Z,8.41
2019-03-16T04:38:50.791Z,7.58
2019-03-16T04:44:45.770Z,7.21
2019-03-16T04:50:40.796Z,7.91
2019-03-16T04:56:35.788Z,8.24
2019-03-16T05:02:30.799Z,7.51
2019-03-16T05:08:25.802Z,6.88
2019-03-16T05:14:20.797Z,7.44
2019-03-16T05:20:15.784Z,7.74
2019-03-16T05:26:10.792Z,6.76
2019-03-16T05:32:05.817Z,6.37
2019-03-16T05:38:00.851Z,5.98
2019-03-16T05:43:55.825Z,6.37
2019-03-16T05:49:50.876Z,6.59
2019-03-16T05:55:45.832Z,6.5
2019-03-16T06:01:40.875Z,7.39
2019-03-16T06:07:35.863Z,6.77
2019-03-16T06:13:30.874Z,6.5
2019-03-16T06:19:25.877Z,6.72
2019-03-16T06:25:20.864Z,7.08
2019-03-16T06:31:15.898Z,6.74
2019-03-16T06:37:11.011Z,5.67
2019-03-16T06:43:05.875Z,6.23
2019-03-16T06:49:00.885Z,8.08
2019-03-16T06:54:55.943Z,9.84
2019-03-16T07:00:50.896Z,8.47
2019-03-16T07:06:45.904Z,9.33
2019-03-16T07:12:40.913Z,8.9
2019-03-16T07:18:35.947Z,9.96
2019-03-16T07:24:30.931Z,10.4
2019-03-16T07:30:25.910Z,10.29
2019-03-16T07:36:20.922Z,10.02
2019-03-16T07:42:15.916Z,11
2019-03-16T07:48:10.954Z,8.34
2019-03-16T07:54:06.015Z,7.44
2019-03-16T08:00:00.950Z,8.33
2019-03-16T08:05:55.933Z,8.96
2019-03-16T08:11:50.975Z,9.12
2019-03-16T08:17:45.959Z,7.39
2019-03-16T08:23:40.950Z,7.62
2019-03-16T08:29:35.954Z,8.68
2019-03-16T08:35:30.956Z,7.25
2019-03-16T08:41:25.982Z,6.8
2019-03-16T08:47:21.004Z,6.21
2019-03-16T08:53:16.015Z,6.05
2019-03-16T08:59:11.029Z,5.94
2019-03-16T09:05:06.025Z,6.69
2019-03-16T09:11:01.034Z,6.78
2019-03-16T09:16:56.007Z,7.01
2019-03-16T09:22:51.040Z,6.32
2019-03-16T09:28:46.004Z,5.75
2019-03-16T09:34:41.035Z,6.35
2019-03-16T09:40:36.109Z,6.38
2019-03-16T09:46:31.038Z,5.66
2019-03-16T09:52:26.036Z,5.12
2019-03-16T09:58:30.604Z,4.95
2019-03-16T10:04:16.105Z,4.53
2019-03-16T10:10:11.047Z,4.43
2019-03-16T10:16:06.076Z,5.38
2019-03-16T10:22:01.098Z,6.28
2019-03-16T10:27:56.080Z,5.82
2019-03-16T10:33:51.092Z,5.39
2019-03-16T10:39:46.085Z,5.26
2019-03-16T10:45:41.100Z,5.72
2019-03-16T10:51:36.085Z,5.25
2019-03-16T10:57:31.112Z,5.58
2019-03-16T11:03:26.106Z,5.23
2019-03-16T11:09:21.138Z,5.79
2019-03-16T11:15:16.143Z,5.98
2019-03-16T11:21:11.132Z,6.08
2019-03-16T11:27:06.129Z,6.14
2019-03-16T11:33:01.134Z,5.17
2019-03-16T11:38:56.161Z,5.03
2019-03-16T11:44:51.222Z,4.45
2019-03-16T11:50:48.769Z,4.73
2019-03-16T11:56:41.149Z,5.25
2019-03-16T12:02:36.172Z,5.65
2019-03-16T12:08:31.201Z,5.5
2019-03-16T12:14:26.176Z,5.44
2019-03-16T12:20:21.204Z,4.78
2019-03-16T12:26:16.212Z,4.64
2019-03-16T12:32:11.193Z,5
2019-03-16T12:38:06.205Z,4.26
2019-03-16T12:44:01.209Z,3.83
2019-03-16T12:49:56.207Z,3.74
2019-03-16T12:55:51.213Z,4.49
2019-03-16T13:01:46.240Z,3.42
2019-03-16T13:07:41.219Z,3.77
2019-03-16T13:13:36.269Z,3.52
2019-03-16T13:19:31.239Z,3.75
2019-03-16T13:25:26.239Z,3.08
2019-03-16T13:31:21.256Z,3.17
2019-03-16T13:37:16.265Z,3.19
2019-03-16T13:43:11.278Z,2.65
2019-03-16T13:49:06.284Z,3.11
2019-03-16T13:55:01.271Z,2.96
2019-03-16T14:00:56.297Z,2.88
2019-03-16T14:06:51.284Z,2.66
2019-03-16T14:12:46.273Z,3.28
2019-03-16T14:18:41.302Z,3.1
2019-03-16T14:24:36.280Z,2.88
2019-03-16T14:30:40.759Z,2.98
2019-03-16T14:36:26.307Z,3.48
2019-03-16T14:42:21.309Z,2.95
2019-03-16T14:48:16.356Z,3.03
2019-03-16T14:54:11.369Z,2.86
2019-03-16T15:00:06.336Z,3.21
2019-03-16T15:06:01.351Z,2.55
2019-03-16T15:11:56.355Z,2.95
2019-03-16T15:17:51.343Z,3.32
2019-03-16T15:23:46.357Z,2.83
2019-03-16T15:29:41.371Z,2.88
2019-03-16T15:35:36.383Z,3.16
2019-03-16T15:41:31.381Z,3.6
2019-03-16T15:47:26.368Z,3.85
2019-03-16T15:53:21.398Z,3.5
2019-03-16T15:59:16.391Z,3.69
2019-03-16T16:05:11.435Z,3.3
2019-03-16T16:11:06.413Z,3.86
2019-03-16T16:17:01.420Z,4
2019-03-16T16:22:56.448Z,4.43
2019-03-16T16:28:51.412Z,3.76
2019-03-16T16:34:46.444Z,3.53
2019-03-16T16:40:41.433Z,4.19
2019-03-16T16:46:36.442Z,4.05
2019-03-16T16:52:31.461Z,4.94
2019-03-16T16:58:26.450Z,6.8
2019-03-16T17:04:21.463Z,4.77
2019-03-16T17:10:16.473Z,4.27
2019-03-16T17:16:11.464Z,4.62
2019-03-16T17:22:06.501Z,4.24
2019-03-16T17:28:01.506Z,4.32
2019-03-16T17:33:56.507Z,4.08
2019-03-16T17:39:51.505Z,4.76
2019-03-16T17:45:46.504Z,4.6
2019-03-16T17:51:41.495Z,4.53
2019-03-16T17:57:36.529Z,4.98
2019-03-16T18:03:31.568Z,4.91
2019-03-16T18:09:26.566Z,5.51
2019-03-16T18:15:21.532Z,5.81
2019-03-16T18:21:16.619Z,5.6
2019-03-16T18:27:11.522Z,6.48
2019-03-16T18:33:06.582Z,7.23
2019-03-16T18:39:01.603Z,6.85
2019-03-16T18:44:56.601Z,5.78
2019-03-16T18:50:51.569Z,7.02
2019-03-16T18:56:46.572Z,5.75
2019-03-16T19:02:41.573Z,6.29
2019-03-16T19:08:36.602Z,6.63
2019-03-16T19:14:31.601Z,6.63
2019-03-16T19:20:26.594Z,6.49
2019-03-16T19:26:21.594Z,6.43
2019-03-16T19:32:17.253Z,7.49
2019-03-16T19:38:13.281Z,5.62
2019-03-16T19:44:06.629Z,6.27
2019-03-16T19:50:01.629Z,6.25
2019-03-16T19:55:56.638Z,6.45
2019-03-16T20:01:51.639Z,5.35
2019-03-16T20:07:46.650Z,7.23
2019-03-16T20:13:41.646Z,5.49
2019-03-16T20:19:36.652Z,5.63
2019-03-16T20:25:31.662Z,6.03
2019-03-16T20:31:26.674Z,5.64
2019-03-16T20:37:21.670Z,7.54
2019-03-16T20:43:16.680Z,6.89
2019-03-16T20:49:11.700Z,6.6
2019-03-16T20:55:06.692Z,6.19
2019-03-16T21:01:01.739Z,6.67
2019-03-16T21:06:56.669Z,6.54
2019-03-16T21:12:51.678Z,6.69
2019-03-16T21:18:46.725Z,6.36
2019-03-16T21:24:41.703Z,5.72
2019-03-16T21:30:36.720Z,5.67
2019-03-16T21:36:40.833Z,6.3
2019-03-16T21:42:26.729Z,6.47
2019-03-16T21:48:21.736Z,7.01
2019-03-16T21:54:16.733Z,5.92
2019-03-16T22:00:11.811Z,6.41
2019-03-16T22:06:06.749Z,5.84
2019-03-16T22:12:01.817Z,6.07
2019-03-16T22:17:56.818Z,5.65
2019-03-16T22:23:51.792Z,4.31
2019-03-16T22:29:46.763Z,4.25
2019-03-16T22:35:41.781Z,4.51
2019-03-16T22:41:36.795Z,5.16
2019-03-16T22:47:31.764Z,3.99
2019-03-16T22:53:26.796Z,4.38
2019-03-16T22:59:21.858Z,5.34
2019-03-16T23:05:16.791Z,5.43
2019-03-16T23:11:11.869Z,4.08
2019-03-16T23:17:06.801Z,4.46
2019-03-16T23:23:01.852Z,4.21
2019-03-16T23:28:56.826Z,4.59
2019-03-16T23:34:51.836Z,3.58
2019-03-16T23:40:46.825Z,3.62
2019-03-16T23:46:41.832Z,4.12
2019-03-16T23:52:37.215Z,3.5
2019-03-16T23:58:31.873Z,3.79
